createdAt,value
2022-12-17T00:02:20.373Z,80.85
2022-12-17T00:13:46.673Z,81.86
2022-12-17T00:19:11.546Z,81.83
2022-12-17T00:24:33.487Z,82.07
2022-12-17T00:29:55.498Z,82.17
2022-12-17T00:35:21.353Z,82.37
2022-12-17T00:40:43.832Z,81.96
2022-12-17T00:46:08.787Z,82.10
2022-12-17T00:51:31.100Z,81.63
2022-12-17T00:56:54.002Z,81.65
2022-12-17T01:02:18.900Z,81.15
2022-12-17T01:07:42.423Z,81.46
2022-12-17T01:13:05.290Z,80.82
2022-12-17T01:18:27.653Z,80.37
2022-12-17T01:23:49.698Z,81.33
2022-12-17T01:29:11.998Z,82.16
2022-12-17T01:34:36.177Z,82.14
2022-12-17T01:39:58.898Z,82.30
2022-12-17T01:45:22.628Z,82.02
2022-12-17T01:50:47.817Z,81.59
2022-12-17T01:56:10.111Z,81.48
2022-12-17T02:01:32.305Z,81.73
2022-12-17T02:06:57.637Z,82.05
2022-12-17T02:12:38.969Z,81.52
2022-12-17T02:18:07.270Z,82.20
2022-12-17T02:24:14.254Z,82.28
2022-12-17T02:29:39.790Z,82.60
2022-12-17T02:35:06.890Z,82.75
2022-12-17T02:40:31.924Z,81.97
2022-12-17T02:45:54.141Z,81.84
2022-12-17T02:51:18.067Z,81.73
2022-12-17T02:56:40.414Z,82.21
2022-12-17T03:02:02.665Z,82.07
2022-12-17T03:07:29.428Z,81.91
2022-12-17T03:12:51.581Z,82.23
2022-12-17T03:18:13.660Z,81.82
2022-12-17T03:23:36.101Z,81.55
2022-12-17T03:28:58.443Z,81.34
2022-12-17T03:34:20.725Z,81.90
2022-12-17T03:39:43.073Z,82.07
2022-12-17T03:45:05.186Z,82.23
2022-12-17T03:50:27.873Z,82.07
2022-12-17T03:55:50.077Z,82.28
2022-12-17T04:01:12.491Z,81.53
2022-12-17T04:06:39.324Z,81.19
2022-12-17T04:12:04.593Z,81.48
2022-12-17T04:17:26.956Z,81.49
2022-12-17T04:22:53.513Z,82.04
2022-12-17T04:28:16.244Z,81.41
2022-12-17T04:33:38.972Z,81.40
2022-12-17T04:39:01.730Z,81.44
2022-12-17T04:44:23.803Z,81.73
2022-12-17T04:49:45.838Z,82.68
2022-12-17T04:55:07.990Z,82.86
2022-12-17T05:00:30.490Z,82.45
2022-12-17T05:05:52.474Z,82.64
2022-12-17T05:11:14.501Z,82.74
2022-12-17T05:16:39.401Z,83.07
2022-12-17T05:22:02.250Z,83.22
2022-12-17T05:27:44.238Z,82.75
2022-12-17T05:33:06.253Z,82.75
2022-12-17T05:38:29.694Z,83.23
2022-12-17T05:43:51.836Z,83.06
2022-12-17T05:49:13.870Z,82.87
2022-12-17T05:54:36.056Z,82.54
2022-12-17T05:59:58.278Z,82.82
2022-12-17T06:05:23.541Z,83.27
2022-12-17T06:10:48.103Z,83.33
2022-12-17T06:16:10.271Z,83.18
2022-12-17T06:21:32.466Z,83.84
2022-12-17T06:26:54.864Z,82.98
2022-12-17T06:32:17.339Z,83.07
2022-12-17T06:37:40.292Z,83.60
2022-12-17T06:43:11.870Z,83.59
2022-12-17T06:48:34.146Z,83.84
2022-12-17T06:53:56.301Z,83.72
2022-12-17T06:59:18.875Z,83.84
2022-12-17T07:04:41.800Z,83.70
2022-12-17T07:10:08.014Z,83.49
2022-12-17T07:15:38.916Z,83.74
2022-12-17T07:21:02.483Z,83.12
2022-12-17T07:26:30.940Z,82.57
2022-12-17T07:31:57.056Z,82.29
2022-12-17T07:37:23.738Z,82.29
2022-12-17T07:42:52.167Z,82.05
2022-12-17T07:48:25.076Z,81.86
2022-12-17T07:54:02.851Z,82.00
2022-12-17T08:00:03.952Z,82.12
2022-12-17T08:12:03.474Z,82.17
2022-12-17T08:17:32.522Z,82.49
2022-12-17T08:23:24.601Z,82.30
2022-12-17T08:28:51.181Z,82.17
2022-12-17T08:34:22.979Z,81.60
2022-12-17T08:39:47.988Z,81.36
2022-12-17T08:45:11.771Z,81.16
2022-12-17T08:56:16.679Z,81.05
2022-12-17T09:01:41.745Z,80.97
2022-12-17T09:07:11.761Z,81.08
2022-12-17T09:13:05.377Z,81.02
2022-12-17T09:18:45.623Z,80.66
2022-12-17T09:24:20.966Z,80.32
2022-12-17T09:29:49.148Z,80.02
2022-12-17T09:35:28.927Z,80.06
2022-12-17T09:41:08.995Z,80.25
2022-12-17T09:47:17.350Z,80.05
2022-12-17T09:52:52.703Z,80.04
2022-12-17T09:58:20.251Z,79.63
2022-12-17T10:09:40.129Z,79.67
2022-12-17T10:15:14.787Z,79.56
2022-12-17T10:21:24.065Z,79.51
2022-12-17T10:27:09.876Z,79.25
2022-12-17T10:32:35.535Z,78.88
2022-12-17T10:38:00.856Z,79.00
2022-12-17T10:43:47.346Z,79.27
2022-12-17T10:49:36.057Z,79.37
2022-12-17T10:55:09.307Z,79.21
2022-12-17T11:01:02.210Z,78.65
2022-12-17T11:06:56.716Z,78.83
2022-12-17T11:12:24.561Z,79.14
2022-12-17T11:17:57.834Z,78.85
2022-12-17T11:23:26.970Z,78.61
2022-12-17T11:29:08.040Z,78.23
2022-12-17T11:34:58.844Z,78.29
2022-12-17T11:41:07.709Z,78.50
2022-12-17T11:46:52.388Z,78.77
2022-12-17T11:52:29.506Z,78.94
2022-12-17T11:57:54.875Z,78.76
2022-12-17T12:04:10.777Z,79.02
2022-12-17T12:10:03.027Z,79.14
2022-12-17T12:16:18.760Z,78.55
2022-12-17T12:22:41.042Z,78.30
2022-12-17T12:28:14.994Z,78.78
2022-12-17T12:33:57.210Z,78.46
2022-12-17T12:39:22.733Z,78.56
2022-12-17T12:45:20.175Z,78.58
2022-12-17T12:50:49.545Z,79.08
2022-12-17T12:56:17.538Z,79.30
2022-12-17T13:02:04.141Z,79.24
2022-12-17T13:07:22.993Z,79.28
2022-12-17T13:12:44.636Z,79.60
2022-12-17T13:17:59.280Z,79.73
2022-12-17T13:23:16.198Z,79.80
2022-12-17T13:28:33.340Z,79.65
2022-12-17T13:33:54.560Z,79.55
2022-12-17T13:39:12.526Z,79.38
2022-12-17T13:44:50.322Z,78.95
2022-12-17T13:50:31.682Z,78.93
2022-12-17T13:55:24.600Z,79.27
2022-12-17T14:00:30.723Z,79.64
2022-12-17T14:05:42.604Z,80.17
2022-12-17T14:11:13.966Z,80.23
2022-12-17T14:16:18.765Z,79.84
2022-12-17T14:21:26.122Z,80.15
2022-12-17T14:26:29.824Z,80.22
2022-12-17T14:31:34.206Z,80.19
2022-12-17T14:36:42.274Z,79.87
2022-12-17T14:42:06.906Z,80.65
2022-12-17T14:47:32.552Z,80.50
2022-12-17T14:52:47.854Z,80.35
2022-12-17T14:58:07.937Z,81.17
2022-12-17T15:03:39.969Z,81.28
2022-12-17T15:08:54.775Z,80.80
2022-12-17T15:14:13.130Z,80.67
2022-12-17T15:19:17.245Z,81.08
2022-12-17T15:24:22.795Z,81.20
2022-12-17T15:29:27.746Z,80.65
2022-12-17T15:34:32.434Z,80.27
2022-12-17T15:39:35.799Z,80.11
2022-12-17T15:44:39.470Z,80.12
2022-12-17T15:49:45.021Z,79.98
2022-12-17T15:54:52.976Z,80.30
2022-12-17T15:59:56.580Z,80.24
2022-12-17T16:05:00.419Z,80.16
2022-12-17T16:10:05.847Z,80.37
2022-12-17T16:15:14.815Z,80.56
2022-12-17T16:20:18.169Z,80.60
2022-12-17T16:25:21.504Z,81.25
2022-12-17T16:30:24.805Z,81.04
2022-12-17T16:35:31.120Z,80.86
2022-12-17T16:40:40.917Z,81.64
2022-12-17T16:45:56.200Z,82.17
2022-12-17T16:51:02.602Z,82.41
2022-12-17T16:56:07.954Z,82.52
2022-12-17T17:01:12.209Z,82.52
2022-12-17T17:06:17.294Z,82.44
2022-12-17T17:11:23.138Z,82.38
2022-12-17T17:16:27.918Z,82.13
2022-12-17T17:21:39.013Z,81.88
2022-12-17T17:26:44.559Z,82.43
2022-12-17T17:37:13.856Z,82.40
2022-12-17T17:42:18.457Z,82.20
2022-12-17T17:47:27.652Z,82.19
2022-12-17T17:52:31.526Z,81.90
2022-12-17T17:57:49.517Z,82.09
2022-12-17T18:02:53.746Z,82.16
2022-12-17T18:07:59.272Z,82.30
2022-12-17T18:13:22.334Z,81.89
2022-12-17T18:18:25.687Z,81.82
2022-12-17T18:23:29.018Z,82.13
2022-12-17T18:28:33.398Z,81.72
2022-12-17T18:33:41.566Z,82.22
2022-12-17T18:38:45.479Z,82.39
2022-12-17T18:43:49.486Z,82.22
2022-12-17T18:48:54.135Z,82.06
2022-12-17T18:54:05.535Z,81.96
2022-12-17T18:59:20.510Z,81.91
2022-12-17T19:04:27.304Z,81.59
2022-12-17T19:09:35.916Z,81.69
2022-12-17T19:14:39.542Z,81.96
2022-12-17T19:19:42.896Z,81.66
2022-12-17T19:24:47.828Z,81.76
2022-12-17T19:29:51.214Z,81.72
2022-12-17T19:35:10.302Z,81.95
2022-12-17T19:40:24.093Z,81.47
2022-12-17T19:45:47.976Z,81.40
2022-12-17T19:51:11.586Z,81.02
2022-12-17T19:56:46.951Z,80.93
2022-12-17T20:02:07.261Z,80.79
2022-12-17T20:07:11.552Z,80.54
2022-12-17T20:12:19.112Z,80.62
2022-12-17T20:17:26.998Z,80.63
2022-12-17T20:22:31.218Z,80.49
2022-12-17T20:27:34.875Z,80.80
2022-12-17T20:32:44.392Z,80.58
2022-12-17T20:37:50.744Z,80.18
2022-12-17T20:43:00.533Z,80.01
2022-12-17T20:48:06.676Z,79.83
2022-12-17T20:53:12.294Z,79.60
2022-12-17T20:58:26.423Z,79.32
2022-12-17T21:03:37.125Z,79.33
2022-12-17T21:08:51.225Z,79.46
2022-12-17T21:14:21.231Z,79.78
2022-12-17T21:19:46.805Z,80.14
2022-12-17T21:25:12.375Z,80.23
2022-12-17T21:30:48.869Z,80.38
2022-12-17T21:36:46.264Z,79.99
2022-12-17T21:42:24.740Z,79.62
2022-12-17T21:48:00.125Z,79.64
2022-12-17T21:54:02.807Z,79.70
2022-12-17T22:05:39.304Z,79.34
2022-12-17T22:11:30.976Z,79.45
2022-12-17T22:17:09.696Z,79.84
2022-12-17T22:22:22.291Z,80.06
2022-12-17T22:27:37.355Z,79.70
2022-12-17T22:33:14.783Z,79.47
2022-12-17T22:42:30.507Z,80.20
2022-12-17T22:44:41.944Z,80.70
2022-12-17T22:49:27.684Z,80.87
2022-12-17T22:54:37.904Z,80.88
2022-12-17T23:00:01.901Z,81.00
2022-12-17T23:05:11.544Z,81.00
2022-12-17T23:10:15.148Z,81.03
2022-12-17T23:15:22.014Z,80.54
2022-12-17T23:20:27.252Z,80.43
2022-12-17T23:25:32.275Z,80.22
2022-12-17T23:30:39.826Z,79.96
2022-12-17T23:35:46.356Z,79.84
2022-12-17T23:41:18.934Z,80.45
2022-12-17T23:46:34.661Z,81.11
2022-12-17T23:51:46.205Z,81.85
2022-12-17T23:57:03.358Z,82.62
